Time;durP1;ratioP1;P1;durP2;ratioP2;P2;SDS_P1;SDS_P2;PMS_P1;PMS_P2;Temp;Humidity;BMP_temperature;BMP_pressure;BME280_temperature;BME280_humidity;BME280_pressure;Samples;Min_cycle;Max_cycle;Signal;HPM_P1;HPM_P2
2022/12/22 03:28:06;;;;;;;0.95;0.60;;;9.30;99.90;;;;;;5098503;28;20175;-78
2022/12/22 03:30:32;;;;;;;1.83;0.60;;;9.30;99.90;;;;;;5098256;28;20180;-79
2022/12/22 03:32:59;;;;;;;1.55;0.80;;;9.30;99.90;;;;;;5098506;28;20180;-78
2022/12/22 03:35:25;;;;;;;2.25;0.80;;;9.20;99.90;;;;;;5098379;28;20294;-80
2022/12/22 03:37:50;;;;;;;1.70;0.60;;;9.30;99.90;;;;;;5098250;28;20188;-79
2022/12/22 03:40:16;;;;;;;2.30;0.70;;;9.30;99.90;;;;;;5098476;28;20587;-79
2022/12/22 03:48:10;;;;;;;1.85;0.50;;;9.40;99.90;;;;;;5098594;28;20199;-80
2022/12/22 03:50:36;;;;;;;2.90;0.60;;;9.40;99.90;;;;;;5097590;28;20180;-81
2022/12/22 03:53:01;;;;;;;1.70;0.60;;;9.40;99.90;;;;;;5097511;28;20645;-81
2022/12/22 03:55:27;;;;;;;2.33;0.70;;;9.40;99.90;;;;;;5097421;28;20204;-81
2022/12/22 03:57:53;;;;;;;1.47;0.60;;;9.40;99.90;;;;;;5079710;28;20417;-81
2022/12/22 04:00:18;;;;;;;0.60;0.50;;;9.40;99.90;;;;;;5096856;28;20617;-81
2022/12/22 04:02:44;;;;;;;4.30;0.60;;;9.40;99.90;;;;;;5063321;28;20195;-80
2022/12/22 04:05:10;;;;;;;2.40;0.67;;;9.40;99.90;;;;;;5080122;28;20910;-80
2022/12/22 04:07:35;;;;;;;1.37;0.70;;;9.40;99.90;;;;;;5080141;28;20307;-80
2022/12/22 04:12:54;;;;;;;1.13;0.70;;;9.50;99.90;;;;;;5098366;28;20191;-80
2022/12/22 04:15:25;;;;;;;0.82;0.60;;;9.50;99.90;;;;;;5080236;28;20261;-80
2022/12/22 04:17:51;;;;;;;0.80;0.60;;;9.50;99.90;;;;;;5097666;28;20192;-80
2022/12/22 04:20:17;;;;;;;1.20;0.60;;;9.50;99.90;;;;;;5097831;28;20265;-80
2022/12/22 04:22:43;;;;;;;2.47;0.60;;;9.50;99.90;;;;;;5079323;28;20206;-80
2022/12/22 04:25:10;;;;;;;1.00;0.60;;;9.60;99.90;;;;;;5097094;28;20180;-80
2022/12/22 04:27:35;;;;;;;2.03;0.70;;;9.60;99.90;;;;;;5097512;28;20553;-81
2022/12/22 04:30:02;;;;;;;1.00;0.67;;;9.60;99.90;;;;;;5097146;28;20192;-80
2022/12/22 04:32:27;;;;;;;0.90;0.60;;;9.60;99.90;;;;;;5080021;28;20187;-81
2022/12/22 04:34:53;;;;;;;1.87;0.50;;;9.60;99.90;;;;;;5096719;28;20191;-81
2022/12/22 04:37:18;;;;;;;0.73;0.60;;;9.60;99.90;;;;;;5078907;28;20184;-81
2022/12/22 04:39:44;;;;;;;5.13;0.60;;;9.60;99.90;;;;;;5062130;28;20184;-80
2022/12/22 04:42:10;;;;;;;1.00;0.63;;;9.60;99.90;;;;;;5079624;28;20265;-81
2022/12/22 04:44:35;;;;;;;3.47;0.70;;;9.60;99.90;;;;;;5097130;28;20187;-80
2022/12/22 04:47:01;;;;;;;1.40;0.60;;;9.60;99.90;;;;;;5097642;28;20199;-80
2022/12/22 04:49:26;;;;;;;1.93;0.80;;;9.60;99.90;;;;;;5062128;28;20204;-88
2022/12/22 04:51:52;;;;;;;4.00;0.60;;;9.70;99.90;;;;;;5078731;28;20526;-80
2022/12/22 04:54:17;;;;;;;0.70;0.60;;;9.70;99.90;;;;;;5079228;28;20227;-80
2022/12/22 04:56:43;;;;;;;1.43;0.70;;;9.70;99.90;;;;;;5061664;28;20227;-81
2022/12/22 04:59:08;;;;;;;1.27;0.80;;;9.70;99.90;;;;;;5061912;28;20184;-81
2022/12/22 05:01:34;;;;;;;1.70;0.80;;;9.60;99.90;;;;;;5096564;28;20191;-81
2022/12/22 05:04:00;;;;;;;3.33;0.50;;;9.60;99.90;;;;;;5096808;28;20201;-81
2022/12/22 05:06:25;;;;;;;3.10;1.00;;;9.60;99.90;;;;;;5078628;28;20239;-81
2022/12/22 05:08:51;;;;;;;1.17;0.60;;;9.60;99.90;;;;;;5078269;28;20276;-81
2022/12/22 05:11:16;;;;;;;3.93;0.70;;;9.60;99.90;;;;;;5078360;28;20184;-80
2022/12/22 05:13:42;;;;;;;1.40;0.70;;;9.60;99.90;;;;;;5096763;28;20184;-80
2022/12/22 05:16:11;;;;;;;1.30;0.93;;;9.70;99.90;;;;;;5096092;28;20609;-81
2022/12/22 05:18:38;;;;;;;3.20;0.93;;;9.70;99.90;;;;;;5095774;28;20179;-81
2022/12/22 05:21:08;;;;;;;2.38;0.80;;;9.70;99.90;;;;;;5096026;28;20232;-82
2022/12/22 05:23:33;;;;;;;4.03;1.25;;;9.70;99.90;;;;;;5096030;28;20187;-82
2022/12/22 05:25:59;;;;;;;2.90;1.03;;;9.70;99.90;;;;;;5095906;28;20203;-81
2022/12/22 05:28:25;;;;;;;3.37;1.80;;;9.70;99.90;;;;;;5095682;28;20179;-82
2022/12/22 05:30:52;;;;;;;3.37;1.60;;;9.70;99.90;;;;;;5077438;28;20192;-82
2022/12/22 05:33:18;;;;;;;2.38;1.80;;;9.80;99.90;;;;;;5077409;28;20184;-81
2022/12/22 05:35:43;;;;;;;2.13;1.92;;;9.70;99.90;;;;;;5077348;28;20234;-81
2022/12/22 05:38:09;;;;;;;2.43;2.00;;;9.70;99.90;;;;;;5095468;28;20629;-81
2022/12/22 05:40:34;;;;;;;2.57;1.90;;;9.70;99.90;;;;;;5095297;28;20196;-82
2022/12/22 05:43:00;;;;;;;2.10;1.80;;;9.70;99.90;;;;;;5095555;28;20275;-80
2022/12/22 05:45:26;;;;;;;2.33;1.60;;;9.70;99.90;;;;;;5077183;28;20698;-81
2022/12/22 05:47:52;;;;;;;1.55;1.45;;;9.70;99.90;;;;;;5077137;28;20275;-81
2022/12/22 05:50:23;;;;;;;1.93;1.77;;;9.70;99.90;;;;;;5095904;28;20208;-81
2022/12/22 05:52:49;;;;;;;6.18;2.47;;;9.70;99.90;;;;;;5095062;28;20402;-81
2022/12/22 05:55:15;;;;;;;2.20;2.00;;;9.70;99.90;;;;;;5095788;28;20214;-81
2022/12/22 05:57:41;;;;;;;2.22;2.00;;;9.80;99.90;;;;;;5095123;28;20403;-81
2022/12/22 06:00:11;;;;;;;2.38;2.05;;;9.80;99.90;;;;;;5077486;28;20180;-81
2022/12/22 06:02:37;;;;;;;2.92;1.95;;;9.80;99.90;;;;;;5094991;28;20203;-82
2022/12/22 06:05:02;;;;;;;3.43;2.27;;;9.80;99.90;;;;;;5077744;28;20192;-82
2022/12/22 06:07:28;;;;;;;3.30;2.27;;;9.80;99.90;;;;;;5060599;28;20227;-82
2022/12/22 06:09:53;;;;;;;4.50;2.20;;;9.70;99.90;;;;;;5076914;28;20414;-82
2022/12/22 06:12:19;;;;;;;3.30;3.00;;;9.70;99.90;;;;;;5077201;28;20230;-82
2022/12/22 06:14:45;;;;;;;3.47;3.13;;;9.70;99.90;;;;;;5060332;28;20242;-82
2022/12/22 06:17:10;;;;;;;3.07;2.17;;;9.60;99.90;;;;;;5095167;28;20251;-82
2022/12/22 06:19:36;;;;;;;3.50;2.90;;;9.70;99.90;;;;;;5076964;28;20608;-82
2022/12/22 06:22:01;;;;;;;3.60;2.87;;;9.70;99.90;;;;;;5077255;28;20199;-82
2022/12/22 06:24:27;;;;;;;4.13;3.73;;;9.70;99.90;;;;;;5064314;28;20192;-82
2022/12/22 06:26:52;;;;;;;36.50;6.03;;;9.70;99.90;;;;;;5080869;28;20219;-82
2022/12/22 06:29:18;;;;;;;3.73;2.67;;;9.60;99.90;;;;;;5064733;28;20638;-82
2022/12/22 06:31:44;;;;;;;3.80;2.60;;;9.70;99.90;;;;;;5098812;28;20203;-83
2022/12/22 06:34:10;;;;;;;2.93;2.67;;;9.70;99.90;;;;;;5098957;28;20241;-83
2022/12/22 06:36:37;;;;;;;3.28;2.97;;;9.60;99.90;;;;;;5098675;28;20208;-83
2022/12/22 06:39:06;;;;;;;3.30;2.03;;;9.60;99.90;;;;;;5099338;28;20187;-81
2022/12/22 06:44:16;;;;;;;128.13;8.30;;;9.60;99.90;;;;;;5099056;28;20542;-81
2022/12/22 06:46:41;;;;;;;42.30;4.03;;;9.50;99.90;;;;;;5080946;28;20192;-82
2022/12/22 06:49:07;;;;;;;19.80;4.07;;;9.50;99.90;;;;;;5098700;28;20188;-82
2022/12/22 06:51:32;;;;;;;17.97;4.80;;;9.50;99.90;;;;;;5064477;28;20184;-82
2022/12/22 06:53:58;;;;;;;34.43;5.37;;;9.50;99.90;;;;;;5080566;28;20240;-82
2022/12/22 06:56:23;;;;;;;10.63;4.67;;;9.50;99.90;;;;;;5080278;28;20608;-82
2022/12/22 06:58:49;;;;;;;27.03;5.53;;;9.40;99.90;;;;;;5080110;28;20185;-82
2022/12/22 07:01:14;;;;;;;7.23;4.80;;;9.40;99.90;;;;;;5080417;28;20321;-81
2022/12/22 07:03:40;;;;;;;8.30;5.27;;;9.40;99.90;;;;;;5080076;28;20184;-82
2022/12/22 07:06:06;;;;;;;9.13;6.00;;;9.40;99.90;;;;;;5097715;28;20215;-81
2022/12/22 07:08:31;;;;;;;13.40;5.90;;;9.30;99.90;;;;;;5063654;28;20192;-81
2022/12/22 07:10:57;;;;;;;7.20;5.70;;;9.30;99.90;;;;;;5080358;28;20418;-81
2022/12/22 07:13:30;;;;;;;5.90;4.97;;;9.30;99.90;;;;;;5063538;28;20253;-81
2022/12/22 07:15:56;;;;;;;6.07;5.05;;;9.30;99.90;;;;;;5098644;28;20244;-82
2022/12/22 07:18:21;;;;;;;7.70;5.13;;;9.20;99.90;;;;;;5098283;28;20187;-81
2022/12/22 07:20:47;;;;;;;6.90;5.80;;;9.20;99.90;;;;;;5098151;28;20189;-82
2022/12/22 07:23:13;;;;;;;17.50;5.10;;;9.20;99.90;;;;;;5079718;28;20188;-82
2022/12/22 07:25:38;;;;;;;7.93;4.67;;;9.30;99.90;;;;;;5079498;28;20211;-82
2022/12/22 07:28:05;;;;;;;11.87;3.80;;;9.20;99.90;;;;;;5097871;28;20195;-82
2022/12/22 07:30:31;;;;;;;12.80;4.47;;;9.20;99.90;;;;;;5079852;28;20195;-81
2022/12/22 07:32:57;;;;;;;28.83;3.97;;;9.20;99.90;;;;;;5098223;28;20653;-82
2022/12/22 07:35:22;;;;;;;11.53;4.10;;;9.20;99.90;;;;;;5096385;28;21096;-81
2022/12/22 07:37:48;;;;;;;16.97;3.80;;;9.10;99.90;;;;;;5079513;28;20192;-81
2022/12/22 07:40:15;;;;;;;9.20;3.17;;;9.00;99.90;;;;;;5080272;28;20216;-81
2022/12/22 07:42:44;;;;;;;9.10;4.13;;;9.00;99.90;;;;;;5097795;28;20188;-82
2022/12/22 07:45:15;;;;;;;5.65;3.20;;;9.00;99.90;;;;;;5098259;28;20192;-84
2022/12/22 07:47:41;;;;;;;6.40;4.53;;;9.00;99.90;;;;;;5096244;28;20168;-84
2022/12/22 07:50:26;;;;;;;11.75;4.65;;;9.00;99.90;;;;;;5078670;28;20255;-83
2022/12/22 07:52:56;;;;;;;10.10;4.90;;;9.00;99.90;;;;;;5097353;28;20160;-83
2022/12/22 07:55:23;;;;;;;10.93;4.55;;;9.00;99.90;;;;;;5079116;28;20227;-84
2022/12/22 07:57:49;;;;;;;7.07;5.00;;;9.00;99.90;;;;;;5096828;28;20184;-84
2022/12/22 08:00:15;;;;;;;9.52;5.10;;;9.00;99.90;;;;;;5097555;28;20185;-83
2022/12/22 08:02:41;;;;;;;7.55;5.43;;;9.00;99.90;;;;;;5097574;28;20275;-84
2022/12/22 08:05:08;;;;;;;7.30;5.57;;;9.00;99.90;;;;;;5097114;28;20269;-83
2022/12/22 08:07:34;;;;;;;7.82;7.03;;;9.10;99.90;;;;;;5097026;28;20460;-83
2022/12/22 08:10:00;;;;;;;6.37;5.23;;;9.10;99.90;;;;;;5078398;28;20203;-83
2022/12/22 08:12:26;;;;;;;436.80;264.20;;;9.10;99.90;;;;;;5096590;28;20410;-85
2022/12/22 08:14:52;;;;;;;13.85;11.10;;;9.10;99.90;;;;;;5096306;28;20421;-84
2022/12/22 08:17:18;;;;;;;14.03;6.70;;;9.10;99.90;;;;;;5096663;28;20176;-85
2022/12/22 08:19:43;;;;;;;8.20;6.47;;;9.10;99.90;;;;;;5078586;28;20208;-84
2022/12/22 08:22:10;;;;;;;10.60;6.80;;;9.10;99.90;;;;;;5096335;28;20547;-84
2022/12/22 08:24:36;;;;;;;9.18;6.32;;;9.20;99.90;;;;;;5062162;28;20292;-84
2022/12/22 08:27:07;;;;;;;8.73;7.23;;;9.20;99.90;;;;;;5078503;28;20204;-84
2022/12/22 08:29:47;;;;;;;11.43;9.32;;;9.30;99.90;;;;;;5097164;28;20161;-84
2022/12/22 08:32:12;;;;;;;14.65;9.00;;;9.30;99.90;;;;;;5096730;28;20242;-84
2022/12/22 08:34:39;;;;;;;11.60;9.10;;;9.30;99.90;;;;;;5077464;28;20188;-83
2022/12/22 08:37:09;;;;;;;12.90;9.65;;;9.40;99.90;;;;;;5096021;28;20227;-84
2022/12/22 08:39:37;;;;;;;15.10;10.20;;;9.40;99.90;;;;;;5097306;28;20172;-83
2022/12/22 08:42:08;;;;;;;13.95;11.05;;;9.40;99.90;;;;;;5096934;28;20271;-82
2022/12/22 08:44:36;;;;;;;13.50;10.02;;;9.50;99.90;;;;;;5097441;28;20634;-81
2022/12/22 08:47:02;;;;;;;18.42;13.25;;;9.50;99.90;;;;;;5096210;28;20184;-82
2022/12/22 08:49:28;;;;;;;15.82;11.40;;;9.50;99.90;;;;;;5096727;28;20287;-81
2022/12/22 08:51:53;;;;;;;19.80;12.83;;;9.60;99.90;;;;;;5096554;28;20277;-82
2022/12/22 08:54:20;;;;;;;15.63;12.10;;;9.60;99.90;;;;;;5077925;28;20180;-82
2022/12/22 08:56:46;;;;;;;18.55;12.85;;;9.60;99.90;;;;;;5095929;28;20212;-83
2022/12/22 08:59:12;;;;;;;17.58;11.88;;;9.70;99.90;;;;;;5096046;28;20180;-82
2022/12/22 09:01:42;;;;;;;24.95;14.43;;;9.70;99.90;;;;;;5077890;28;20687;-83
2022/12/22 09:04:09;;;;;;;23.63;14.85;;;9.60;99.90;;;;;;5078960;28;20218;-82
2022/12/22 09:06:35;;;;;;;18.73;13.15;;;9.60;99.90;;;;;;5077310;28;20226;-82
2022/12/22 09:09:03;;;;;;;17.53;12.33;;;9.60;99.90;;;;;;5095823;28;20188;-82
2022/12/22 09:11:29;;;;;;;17.88;12.60;;;9.60;99.90;;;;;;5077655;28;20719;-82
2022/12/22 09:13:56;;;;;;;18.48;13.35;;;9.60;99.90;;;;;;5095785;28;20188;-83
2022/12/22 09:16:23;;;;;;;19.52;12.30;;;9.60;99.90;;;;;;5095969;28;20545;-83
2022/12/22 09:18:49;;;;;;;19.50;13.85;;;9.60;99.90;;;;;;5077717;28;20291;-83
2022/12/22 09:21:15;;;;;;;20.37;14.03;;;9.60;99.90;;;;;;5060827;28;20658;-83
2022/12/22 09:23:41;;;;;;;20.55;14.80;;;9.60;99.90;;;;;;5078837;28;20329;-83
2022/12/22 09:26:08;;;;;;;22.40;13.50;;;9.60;99.90;;;;;;5096399;28;20603;-82
2022/12/22 09:28:34;;;;;;;22.80;15.27;;;9.70;99.90;;;;;;5096200;28;20187;-83
2022/12/22 09:31:00;;;;;;;26.80;15.80;;;9.70;99.90;;;;;;5095948;28;20188;-83
2022/12/22 09:33:26;;;;;;;20.07;13.60;;;9.70;99.90;;;;;;5079415;28;20191;-82
2022/12/22 09:35:51;;;;;;;23.20;14.50;;;9.70;99.90;;;;;;5077442;28;20807;-83
2022/12/22 09:38:17;;;;;;;23.27;15.87;;;9.70;99.90;;;;;;5060830;28;20195;-83
2022/12/22 09:40:43;;;;;;;24.20;15.27;;;9.80;99.90;;;;;;5095464;28;20917;-84
2022/12/22 09:43:16;;;;;;;21.27;15.10;;;9.70;99.90;;;;;;5078388;28;20192;-83
2022/12/22 09:45:42;;;;;;;22.30;15.80;;;9.70;99.90;;;;;;5096482;28;20225;-82
2022/12/22 09:48:12;;;;;;;24.13;16.98;;;9.70;99.90;;;;;;5078051;28;20186;-83
2022/12/22 09:50:39;;;;;;;22.80;15.95;;;9.70;99.90;;;;;;5077431;28;20214;-83
2022/12/22 09:53:10;;;;;;;20.02;13.57;;;9.70;99.90;;;;;;5077791;28;20195;-83
2022/12/22 09:55:41;;;;;;;21.30;15.50;;;9.70;99.90;;;;;;5096174;28;20237;-78
2022/12/22 09:58:28;;;;;;;25.42;17.00;;;9.70;99.90;;;;;;5097547;28;20176;-83
2022/12/22 10:01:07;;;;;;;23.38;13.35;;;9.80;99.90;;;;;;5099865;28;20183;-83
2022/12/22 10:03:58;;;;;;;22.55;14.93;;;9.80;99.90;;;;;;5081969;28;20180;-82
2022/12/22 10:06:33;;;;;;;25.08;15.68;;;9.80;99.90;;;;;;5099945;28;20238;-83
2022/12/22 10:09:03;;;;;;;25.95;16.15;;;9.80;99.90;;;;;;5099781;28;20235;-83
2022/12/22 10:11:29;;;;;;;27.10;15.48;;;9.80;99.90;;;;;;5099407;28;20171;-83
2022/12/22 10:13:54;;;;;;;24.50;15.40;;;9.80;99.90;;;;;;5098764;28;20188;-82
2022/12/22 10:16:27;;;;;;;25.50;15.77;;;9.80;99.90;;;;;;5080821;28;20302;-83
2022/12/22 10:19:08;;;;;;;27.60;17.60;;;9.90;99.90;;;;;;5099192;28;20184;-84
2022/12/22 10:21:34;;;;;;;29.90;17.70;;;9.90;99.90;;;;;;5080805;28;20194;-84
2022/12/22 10:24:00;;;;;;;27.13;16.27;;;9.90;99.90;;;;;;5099511;28;20176;-84
2022/12/22 10:26:30;;;;;;;20.92;14.00;;;10.00;99.90;;;;;;5080422;28;20428;-85
2022/12/22 10:29:02;;;;;;;22.00;15.10;;;10.00;99.90;;;;;;5077991;28;20184;-83
2022/12/22 10:31:30;;;;;;;18.40;14.07;;;10.00;99.90;;;;;;5098763;28;20168;-84
2022/12/22 10:34:13;;;;;;;18.67;13.23;;;10.00;99.90;;;;;;5098113;28;20184;-84
2022/12/22 10:36:40;;;;;;;21.65;12.80;;;10.00;99.90;;;;;;5098541;28;20216;-85
2022/12/22 10:39:09;;;;;;;23.52;14.45;;;10.00;99.90;;;;;;5098151;28;20184;-85
2022/12/22 10:41:39;;;;;;;24.63;14.57;;;10.00;99.90;;;;;;5098381;28;20210;-85
2022/12/22 10:44:09;;;;;;;18.05;12.23;;;10.00;99.90;;;;;;5097807;28;20234;-85
2022/12/22 10:46:45;;;;;;;17.60;12.00;;;10.00;99.90;;;;;;5080702;28;20192;-85
2022/12/22 10:49:32;;;;;;;19.35;12.93;;;9.90;99.90;;;;;;5099033;28;20541;-85
2022/12/22 10:52:13;;;;;;;20.55;12.82;;;9.90;99.90;;;;;;5079707;28;20612;-85
2022/12/22 10:54:43;;;;;;;21.10;12.10;;;9.90;99.90;;;;;;5098361;28;20547;-85
2022/12/22 10:57:14;;;;;;;21.75;14.15;;;9.90;99.90;;;;;;5097451;28;20212;-85
2022/12/22 10:59:54;;;;;;;21.33;13.35;;;10.00;99.90;;;;;;5079719;28;20184;-85
2022/12/22 11:02:21;;;;;;;19.27;12.75;;;10.00;99.90;;;;;;5097557;28;20689;-85
2022/12/22 11:04:47;;;;;;;20.83;13.77;;;9.90;99.90;;;;;;5097865;28;20271;-85
2022/12/22 11:07:13;;;;;;;20.00;12.95;;;9.90;99.90;;;;;;5097950;28;20216;-85
2022/12/22 11:09:39;;;;;;;24.07;14.43;;;10.00;99.90;;;;;;5079625;28;20211;-85
2022/12/22 11:12:17;;;;;;;24.17;14.33;;;10.00;99.90;;;;;;5097834;28;20777;-85
2022/12/22 11:15:08;;;;;;;23.15;13.80;;;10.30;99.90;;;;;;5079621;28;20621;-85
2022/12/22 11:17:40;;;;;;;19.55;11.95;;;10.60;99.90;;;;;;5079391;28;20292;-85
2022/12/22 11:20:23;;;;;;;18.15;11.50;;;10.80;99.90;;;;;;5097883;28;20183;-85
2022/12/22 11:22:53;;;;;;;18.00;10.88;;;11.20;99.90;;;;;;5079460;28;20220;-87
2022/12/22 11:25:38;;;;;;;13.30;8.53;;;11.60;99.90;;;;;;5097467;28;20177;-85
2022/12/22 11:28:18;;;;;;;13.45;9.27;;;11.50;99.90;;;;;;5097128;28;20399;-86
2022/12/22 11:30:56;;;;;;;12.50;8.93;;;11.80;99.90;;;;;;5097112;28;20175;-85
2022/12/22 11:33:57;;;;;;;16.20;9.97;;;11.90;99.90;;;;;;5097168;28;20398;-85
2022/12/22 11:36:48;;;;;;;13.45;8.57;;;11.50;99.90;;;;;;5098027;28;20498;-85
2022/12/22 11:39:16;;;;;;;12.35;9.00;;;11.00;99.90;;;;;;5078690;28;20188;-83
2022/12/22 11:41:50;;;;;;;13.25;8.23;;;10.80;99.90;;;;;;5097259;28;20184;-85
2022/12/22 11:44:35;;;;;;;11.65;8.95;;;10.50;99.90;;;;;;5079018;28;20186;-85
2022/12/22 11:47:38;;;;;;;13.68;9.35;;;10.30;99.90;;;;;;5078559;28;20203;-88
2022/12/22 11:50:26;;;;;;;13.88;9.52;;;10.50;99.90;;;;;;5044884;28;20191;-85
2022/12/22 11:53:20;;;;;;;12.52;8.35;;;10.60;99.90;;;;;;5084375;28;20543;-85
2022/12/22 11:56:00;;;;;;;11.90;7.63;;;10.50;99.90;;;;;;5102028;28;20196;-84
2022/12/22 11:58:44;;;;;;;11.23;7.68;;;10.50;99.90;;;;;;5099655;28;20179;-84
2022/12/22 12:01:34;;;;;;;10.55;7.70;;;10.60;99.90;;;;;;5099032;28;20176;-84
2022/12/22 12:04:20;;;;;;;10.52;6.97;;;10.70;99.90;;;;;;5097529;28;20212;-85
2022/12/22 12:07:17;;;;;;;10.50;7.85;;;10.70;99.90;;;;;;5080735;28;20341;-84
2022/12/22 12:10:00;;;;;;;8.80;6.88;;;10.60;99.90;;;;;;5078875;28;20195;-85
2022/12/22 12:12:32;;;;;;;10.80;8.48;;;10.70;99.90;;;;;;5096643;28;20176;-84
2022/12/22 12:15:13;;;;;;;18.65;8.10;;;10.90;99.90;;;;;;5096498;28;20191;-85
2022/12/22 12:18:10;;;;;;;13.20;8.55;;;11.00;99.90;;;;;;5096528;28;20184;-85
2022/12/22 12:20:39;;;;;;;13.20;7.47;;;11.40;99.90;;;;;;5095685;28;20180;-84
2022/12/22 12:23:10;;;;;;;11.73;7.85;;;11.50;99.90;;;;;;5096114;28;20603;-84
2022/12/22 12:26:08;;;;;;;18.57;6.73;;;11.60;99.90;;;;;;5096347;28;20211;-84
2022/12/22 12:29:15;;;;;;;12.23;6.30;;;11.70;99.90;;;;;;5040085;28;20479;-84
2022/12/22 12:31:56;;;;;;;9.95;6.80;;;11.70;99.90;;;;;;5078079;28;20433;-84
2022/12/22 12:34:24;;;;;;;15.13;7.13;;;11.80;99.90;;;;;;5078047;28;20282;-85
2022/12/22 12:36:59;;;;;;;9.00;6.33;;;11.80;99.90;;;;;;5095871;28;20557;-84
2022/12/22 12:39:52;;;;;;;8.77;5.57;;;11.90;99.90;;;;;;5096091;28;20398;-84
2022/12/22 12:42:40;;;;;;;10.05;6.00;;;11.80;99.90;;;;;;5095845;28;20407;-85
2022/12/22 12:45:40;;;;;;;8.63;5.70;;;11.70;99.90;;;;;;5077406;28;20275;-84
2022/12/22 12:48:20;;;;;;;8.03;5.33;;;11.60;99.90;;;;;;5095363;28;20537;-85
2022/12/22 12:50:54;;;;;;;7.35;5.68;;;11.50;99.90;;;;;;5078056;28;20426;-84
2022/12/22 12:53:22;;;;;;;8.35;6.40;;;11.30;99.90;;;;;;5096002;28;20229;-84
2022/12/22 12:55:53;;;;;;;6.00;4.65;;;11.10;99.90;;;;;;5095510;28;20239;-85
2022/12/22 12:58:37;;;;;;;7.10;5.32;;;11.10;99.90;;;;;;5095833;28;20253;-84
2022/12/22 13:01:22;;;;;;;6.20;5.22;;;11.00;99.90;;;;;;5077326;28;20237;-83
2022/12/22 13:03:48;;;;;;;6.80;5.65;;;11.00;99.90;;;;;;5095527;28;20616;-85
2022/12/22 13:06:44;;;;;;;8.27;5.90;;;11.00;99.90;;;;;;5076827;28;20242;-84
2022/12/22 13:09:24;;;;;;;9.25;6.55;;;11.00;99.90;;;;;;5094892;28;20183;-84
2022/12/22 13:11:49;;;;;;;8.15;6.40;;;10.90;99.90;;;;;;5095756;28;20249;-84
2022/12/22 13:14:53;;;;;;;7.73;6.37;;;10.80;99.90;;;;;;5073738;28;20263;-85
2022/12/22 13:17:38;;;;;;;7.68;6.20;;;10.80;99.90;;;;;;5094834;28;20242;-84
2022/12/22 13:20:10;;;;;;;8.48;6.63;;;10.70;99.90;;;;;;5095438;28;20164;-84
2022/12/22 13:22:36;;;;;;;9.93;6.50;;;10.70;99.90;;;;;;5095004;28;20165;-84
2022/12/22 13:25:02;;;;;;;7.90;5.20;;;10.80;99.90;;;;;;5095226;28;20545;-85
2022/12/22 13:27:29;;;;;;;11.35;4.85;;;10.80;99.90;;;;;;5095855;28;20172;-84
2022/12/22 13:29:55;;;;;;;7.78;5.75;;;10.70;99.90;;;;;;5095383;28;20184;-84
2022/12/22 13:32:34;;;;;;;6.73;5.40;;;10.70;99.90;;;;;;5077039;28;20188;-85
2022/12/22 13:35:22;;;;;;;7.65;5.47;;;10.60;99.90;;;;;;5076911;28;20802;-85
2022/12/22 13:37:49;;;;;;;6.75;5.55;;;10.60;99.90;;;;;;5095138;28;20237;-84
2022/12/22 13:40:17;;;;;;;9.93;5.65;;;10.70;99.90;;;;;;5094794;28;20583;-84
2022/12/22 13:42:48;;;;;;;10.25;5.80;;;10.80;99.90;;;;;;5095532;28;20187;-86
2022/12/22 13:45:29;;;;;;;8.55;6.10;;;10.90;99.90;;;;;;5095146;28;20180;-84
2022/12/22 13:47:55;;;;;;;9.10;6.00;;;11.20;99.90;;;;;;5076537;28;20279;-83
2022/12/22 13:50:25;;;;;;;7.47;5.70;;;11.40;99.90;;;;;;5094908;28;20280;-83
2022/12/22 13:52:53;;;;;;;9.02;6.10;;;11.50;99.90;;;;;;5079174;28;20186;-84
2022/12/22 13:55:23;;;;;;;7.63;6.03;;;11.40;99.90;;;;;;5078795;28;20571;-84
2022/12/22 13:57:51;;;;;;;8.65;5.90;;;11.60;99.90;;;;;;5097427;28;20175;-84
2022/12/22 14:00:25;;;;;;;7.47;5.70;;;11.70;99.90;;;;;;5094549;28;20180;-84
2022/12/22 14:02:51;;;;;;;6.97;5.35;;;11.70;99.90;;;;;;5077793;28;20184;-84
2022/12/22 14:05:18;;;;;;;6.73;4.97;;;11.70;99.90;;;;;;5076255;28;20196;-84
2022/12/22 14:08:04;;;;;;;6.35;5.25;;;11.60;99.90;;;;;;5095043;28;20469;-83
2022/12/22 14:10:40;;;;;;;4.87;4.33;;;11.80;99.90;;;;;;5078102;28;20264;-84
2022/12/22 14:13:14;;;;;;;2.50;2.30;;;11.80;99.90;;;;;;5094597;28;20406;-85
2022/12/22 14:15:39;;;;;;;3.03;2.73;;;11.70;99.90;;;;;;5094608;28;20292;-83
2022/12/22 14:18:05;;;;;;;4.57;2.00;;;11.60;99.90;;;;;;5076278;28;20505;-84
2022/12/22 14:20:36;;;;;;;1.70;1.43;;;11.40;99.90;;;;;;5094758;28;20625;-83
2022/12/22 14:23:15;;;;;;;2.30;2.10;;;11.30;99.90;;;;;;5059709;28;20429;-84
2022/12/22 14:25:43;;;;;;;2.63;1.70;;;11.10;99.90;;;;;;5095020;28;20741;-83
2022/12/22 14:28:20;;;;;;;3.13;1.85;;;11.10;99.90;;;;;;5060269;28;20533;-84
2022/12/22 14:30:50;;;;;;;2.65;1.58;;;11.10;99.90;;;;;;5095090;28;20302;-83
2022/12/22 14:33:22;;;;;;;1.40;1.30;;;11.00;99.90;;;;;;5076965;28;20184;-78
2022/12/22 14:35:48;;;;;;;2.13;1.92;;;10.90;99.90;;;;;;5094854;28;20250;-78
2022/12/22 14:38:24;;;;;;;1.63;1.52;;;10.90;99.90;;;;;;5094620;28;20189;-78
2022/12/22 14:40:52;;;;;;;3.63;2.30;;;10.80;99.90;;;;;;5060148;28;20191;-78
2022/12/22 14:43:18;;;;;;;4.53;3.30;;;10.80;99.90;;;;;;5077278;28;20196;-78
2022/12/22 14:45:51;;;;;;;4.50;3.03;;;10.80;99.90;;;;;;5080755;28;20192;-79
2022/12/22 14:48:38;;;;;;;5.63;3.88;;;10.80;99.90;;;;;;5080656;28;20216;-78
2022/12/22 14:51:04;;;;;;;2.97;2.25;;;10.60;99.90;;;;;;5098280;28;20187;-79
2022/12/22 14:53:54;;;;;;;3.65;1.85;;;10.70;99.90;;;;;;5080007;28;20581;-78
2022/12/22 14:56:21;;;;;;;1.98;1.88;;;10.60;99.90;;;;;;5079635;28;20216;-78
2022/12/22 14:58:47;;;;;;;4.43;2.10;;;10.60;99.90;;;;;;5063869;28;20615;-78
2022/12/22 15:01:26;;;;;;;4.20;2.60;;;10.50;99.90;;;;;;5080927;28;20202;-78
2022/12/22 15:04:15;;;;;;;2.53;2.30;;;10.50;99.90;;;;;;5098425;28;20176;-78
2022/12/22 15:06:44;;;;;;;3.10;2.33;;;10.50;99.90;;;;;;5098522;28;20232;-78
2022/12/22 15:09:13;;;;;;;2.15;1.95;;;10.50;99.90;;;;;;5098027;28;20193;-78
2022/12/22 15:11:48;;;;;;;2.40;2.20;;;10.40;99.90;;;;;;5080348;28;20210;-78
2022/12/22 15:14:20;;;;;;;2.83;2.63;;;10.50;99.90;;;;;;5079655;28;20184;-78
2022/12/22 15:16:45;;;;;;;4.40;3.30;;;10.50;99.90;;;;;;5098504;28;20208;-79
2022/12/22 15:19:17;;;;;;;4.70;3.13;;;10.40;99.90;;;;;;5098077;28;20188;-79
2022/12/22 15:21:43;;;;;;;5.63;3.60;;;10.40;99.90;;;;;;5080472;28;20628;-79
2022/12/22 15:24:16;;;;;;;4.33;3.50;;;10.50;99.90;;;;;;5098143;28;20318;-79
2022/12/22 15:26:43;;;;;;;8.32;3.47;;;10.50;99.90;;;;;;5080093;28;20478;-80
2022/12/22 15:29:09;;;;;;;4.60;3.30;;;10.50;99.90;;;;;;5059076;28;20185;-79
2022/12/22 15:31:35;;;;;;;5.00;4.50;;;10.50;99.90;;;;;;5059897;28;20196;-79
2022/12/22 15:34:03;;;;;;;3.25;2.95;;;10.50;99.90;;;;;;5043528;28;20502;-78
2022/12/22 15:36:29;;;;;;;3.92;2.78;;;10.50;99.90;;;;;;5059468;28;20281;-78
2022/12/22 15:38:55;;;;;;;3.07;2.73;;;10.50;99.90;;;;;;5059179;28;20185;-80
2022/12/22 15:41:20;;;;;;;2.90;2.00;;;10.50;99.90;;;;;;5073686;28;20746;-79
2022/12/22 15:43:46;;;;;;;2.93;2.33;;;10.50;99.90;;;;;;5077391;28;20184;-78
2022/12/22 15:46:17;;;;;;;2.43;2.13;;;10.50;99.90;;;;;;5059633;28;20554;-80
2022/12/22 15:48:45;;;;;;;4.90;2.20;;;10.50;99.90;;;;;;5059724;28;20173;-83
2022/12/22 15:51:19;;;;;;;2.45;2.03;;;10.40;99.90;;;;;;5059250;28;20235;-84
2022/12/22 15:53:45;;;;;;;1.73;1.60;;;10.40;99.90;;;;;;5059595;28;20220;-83
2022/12/22 15:56:16;;;;;;;3.33;1.30;;;10.40;99.90;;;;;;5041684;28;20252;-84
2022/12/22 15:58:42;;;;;;;1.20;1.08;;;10.40;99.90;;;;;;5059479;28;20659;-83
2022/12/22 16:01:10;;;;;;;2.10;1.60;;;10.30;99.90;;;;;;5058888;28;20181;-83
2022/12/22 16:03:36;;;;;;;2.95;1.50;;;10.30;99.90;;;;;;5059514;28;20181;-83
2022/12/22 16:06:02;;;;;;;1.57;1.47;;;10.30;99.90;;;;;;5041930;28;20581;-83
2022/12/22 16:08:32;;;;;;;2.83;2.53;;;10.30;99.90;;;;;;5076953;28;20188;-83
2022/12/22 16:10:58;;;;;;;2.90;2.40;;;10.20;99.90;;;;;;5076968;28;20180;-83
2022/12/22 16:13:26;;;;;;;2.03;1.50;;;10.10;99.90;;;;;;5076542;28;20189;-83
2022/12/22 16:15:52;;;;;;;2.47;1.85;;;10.10;99.90;;;;;;5058926;28;20977;-83
2022/12/22 16:18:17;;;;;;;2.10;1.90;;;10.10;99.90;;;;;;5075869;28;20185;-82
2022/12/22 16:20:44;;;;;;;2.23;1.63;;;10.00;99.90;;;;;;5041552;28;20181;-82
2022/12/22 16:23:16;;;;;;;4.72;2.00;;;10.00;99.90;;;;;;5057337;28;20192;-83
2022/12/22 16:25:44;;;;;;;4.07;3.45;;;10.00;99.90;;;;;;5075826;28;20201;-83
2022/12/22 16:28:16;;;;;;;3.13;2.70;;;9.90;99.90;;;;;;5057978;28;20284;-84
2022/12/22 16:30:42;;;;;;;3.95;3.20;;;9.90;99.90;;;;;;5075145;28;20187;-84
2022/12/22 16:33:10;;;;;;;3.07;2.77;;;9.90;99.90;;;;;;5058098;28;20263;-87
2022/12/22 16:35:36;;;;;;;2.70;2.42;;;9.90;99.90;;;;;;5058160;28;20255;-83
2022/12/22 16:38:02;;;;;;;2.20;2.00;;;9.80;99.90;;;;;;5042280;28;20192;-83
2022/12/22 16:40:30;;;;;;;4.10;2.53;;;9.70;99.90;;;;;;5058482;28;20723;-83